createdAt,value
2022-08-19T00:01:56.846Z,8.25
2022-08-19T00:04:30.168Z,9.38
2022-08-19T00:06:58.112Z,9.40
2022-08-19T00:09:26.590Z,9.00
2022-08-19T00:11:56.548Z,9.38
2022-08-19T00:14:26.223Z,8.63
2022-08-19T00:19:24.714Z,8.00
2022-08-19T00:21:53.360Z,7.97
2022-08-19T00:24:20.828Z,9.45
2022-08-19T00:26:48.113Z,10.13
2022-08-19T00:29:19.687Z,9.77
2022-08-19T00:31:47.379Z,9.55
2022-08-19T00:34:15.931Z,9.77
2022-08-19T00:36:44.570Z,10.57
2022-08-19T00:39:13.726Z,10.55
2022-08-19T00:41:41.761Z,9.73
2022-08-19T00:44:15.143Z,10.30
2022-08-19T00:46:57.716Z,10.35
2022-08-19T00:49:52.217Z,10.23
2022-08-19T00:52:35.128Z,10.45
2022-08-19T00:55:05.167Z,10.20
2022-08-19T00:57:39.135Z,10.73
2022-08-19T01:00:14.810Z,10.55
2022-08-19T01:02:43.484Z,11.90
2022-08-19T01:05:20.834Z,11.15
2022-08-19T01:07:49.746Z,10.32
2022-08-19T01:10:22.277Z,10.73
2022-08-19T01:12:51.084Z,11.25
2022-08-19T01:15:25.355Z,10.85
2022-08-19T01:17:54.503Z,11.57
2022-08-19T01:20:24.168Z,10.32
2022-08-19T01:22:56.513Z,10.20
2022-08-19T01:25:32.535Z,10.27
2022-08-19T01:28:03.081Z,11.10
2022-08-19T01:30:38.700Z,9.55
2022-08-19T01:33:06.669Z,11.05
2022-08-19T01:35:36.367Z,10.52
2022-08-19T01:38:11.128Z,11.00
2022-08-19T01:40:42.788Z,10.93
2022-08-19T01:43:09.970Z,10.60
2022-08-19T01:45:40.145Z,12.13
2022-08-19T01:48:08.510Z,11.60
2022-08-19T01:50:37.300Z,11.03
2022-08-19T01:53:10.766Z,11.80
2022-08-19T01:55:42.087Z,10.85
2022-08-19T01:58:19.948Z,11.05
2022-08-19T02:00:48.526Z,11.45
2022-08-19T02:03:16.909Z,11.35
2022-08-19T02:05:45.186Z,10.83
2022-08-19T02:08:13.161Z,11.07
2022-08-19T02:10:44.096Z,11.02
2022-08-19T02:13:14.674Z,10.90
2022-08-19T02:15:42.426Z,11.23
2022-08-19T02:18:09.952Z,11.05
2022-08-19T02:20:38.692Z,10.75
2022-08-19T02:23:13.514Z,10.63
2022-08-19T02:25:45.718Z,10.23
2022-08-19T02:28:17.891Z,10.05
2022-08-19T02:30:48.070Z,10.07
2022-08-19T02:33:15.995Z,10.60
2022-08-19T02:35:45.315Z,10.20
2022-08-19T02:41:03.413Z,10.45
2022-08-19T02:43:33.886Z,10.82
2022-08-19T02:46:03.333Z,11.20
2022-08-19T02:48:31.039Z,9.95
2022-08-19T02:50:58.134Z,10.75
2022-08-19T02:53:28.179Z,12.57
2022-08-19T02:55:55.687Z,11.02
2022-08-19T02:58:25.154Z,11.68
2022-08-19T03:00:56.196Z,11.02
2022-08-19T03:03:24.574Z,11.20
2022-08-19T03:05:56.421Z,12.07
2022-08-19T03:08:26.532Z,12.02
2022-08-19T03:10:54.309Z,10.98
2022-08-19T03:13:21.806Z,11.93
2022-08-19T03:15:49.848Z,12.32
2022-08-19T03:18:17.993Z,11.75
2022-08-19T03:20:49.669Z,11.73
2022-08-19T03:23:18.045Z,12.73
2022-08-19T03:26:02.955Z,11.95
2022-08-19T03:28:38.249Z,10.48
2022-08-19T03:31:43.584Z,11.73
2022-08-19T03:33:58.071Z,11.70
2022-08-19T03:36:29.544Z,11.65
2022-08-19T03:39:01.332Z,11.55
2022-08-19T03:41:45.099Z,12.55
2022-08-19T03:44:24.017Z,11.68
2022-08-19T03:46:58.519Z,11.75
2022-08-19T03:49:29.977Z,12.32
2022-08-19T03:52:01.504Z,11.95
2022-08-19T03:54:29.810Z,11.98
2022-08-19T03:56:58.370Z,13.25
2022-08-19T03:59:33.126Z,13.75
2022-08-19T04:02:03.738Z,12.90
2022-08-19T04:04:31.941Z,12.52
2022-08-19T04:06:59.610Z,13.10
2022-08-19T04:09:28.021Z,13.40
2022-08-19T04:11:57.779Z,14.50
2022-08-19T04:14:31.243Z,12.32
2022-08-19T04:17:00.797Z,11.80
2022-08-19T04:19:30.730Z,12.77
2022-08-19T04:21:58.282Z,12.05
2022-08-19T04:24:25.946Z,13.00
2022-08-19T04:26:53.529Z,12.35
2022-08-19T04:29:26.158Z,12.98
2022-08-19T04:31:56.546Z,12.85
2022-08-19T04:34:27.454Z,12.38
2022-08-19T04:36:58.264Z,11.90
2022-08-19T04:39:50.812Z,12.20
2022-08-19T04:42:37.903Z,13.02
2022-08-19T04:45:13.539Z,12.80
2022-08-19T04:47:49.148Z,13.60
2022-08-19T04:50:27.762Z,12.90
2022-08-19T04:52:56.635Z,13.27
2022-08-19T04:55:26.464Z,12.98
2022-08-19T04:57:54.722Z,13.05
2022-08-19T05:00:22.094Z,12.10
2022-08-19T05:02:50.083Z,12.40
2022-08-19T05:05:17.846Z,13.10
2022-08-19T05:07:44.996Z,12.70
2022-08-19T05:10:12.651Z,12.77
2022-08-19T05:12:40.272Z,11.35
2022-08-19T05:15:11.723Z,13.02
2022-08-19T05:17:39.410Z,11.77
2022-08-19T05:20:29.396Z,13.18
2022-08-19T05:22:56.711Z,11.55
2022-08-19T05:25:26.820Z,11.07
2022-08-19T05:27:54.046Z,12.60
2022-08-19T05:30:33.491Z,12.52
2022-08-19T05:33:01.159Z,11.55
2022-08-19T05:35:29.215Z,12.13
2022-08-19T05:38:02.169Z,12.00
2022-08-19T05:40:29.668Z,12.40
2022-08-19T05:42:57.166Z,11.43
2022-08-19T05:45:25.816Z,13.77
2022-08-19T05:47:52.899Z,12.10
2022-08-19T05:50:20.240Z,12.07
2022-08-19T05:52:50.111Z,12.75
2022-08-19T05:55:21.210Z,13.02
2022-08-19T05:57:48.523Z,13.02
2022-08-19T06:00:16.383Z,13.23
2022-08-19T06:02:43.663Z,12.90
2022-08-19T06:05:11.930Z,13.63
2022-08-19T06:07:42.205Z,14.18
2022-08-19T06:10:12.002Z,13.80
2022-08-19T06:12:39.377Z,13.30
2022-08-19T06:15:11.758Z,12.85
2022-08-19T06:17:39.536Z,14.57
2022-08-19T06:20:14.633Z,12.93
2022-08-19T06:22:50.867Z,13.93
2022-08-19T06:25:19.644Z,12.93
2022-08-19T06:28:11.873Z,14.45
2022-08-19T06:30:35.043Z,13.73
2022-08-19T06:33:02.231Z,14.10
2022-08-19T06:35:30.448Z,13.15
2022-08-19T06:37:58.008Z,12.80
2022-08-19T06:40:25.402Z,13.00
2022-08-19T06:42:54.950Z,13.13
2022-08-19T06:45:24.498Z,13.88
2022-08-19T06:47:57.126Z,12.98
2022-08-19T06:50:25.323Z,14.05
2022-08-19T06:52:53.288Z,13.52
2022-08-19T06:55:20.941Z,13.00
2022-08-19T06:57:49.163Z,14.90
2022-08-19T07:00:16.944Z,13.67
2022-08-19T07:02:49.733Z,14.43
2022-08-19T07:05:20.463Z,14.18
2022-08-19T07:07:47.748Z,14.07
2022-08-19T07:10:15.142Z,13.82
2022-08-19T07:12:42.295Z,14.70
2022-08-19T07:15:10.894Z,14.38
2022-08-19T07:17:39.688Z,14.35
2022-08-19T07:20:09.591Z,14.45
2022-08-19T07:22:41.777Z,14.57
2022-08-19T07:25:10.732Z,13.25
2022-08-19T07:27:39.739Z,13.77
2022-08-19T07:32:40.558Z,13.13
2022-08-19T07:35:08.870Z,13.93
2022-08-19T07:37:38.262Z,13.02
2022-08-19T07:40:08.837Z,11.65
2022-08-19T07:42:36.398Z,13.32
2022-08-19T07:45:05.932Z,13.98
2022-08-19T07:47:58.577Z,11.90
2022-08-19T07:50:22.135Z,12.32
2022-08-19T07:52:51.076Z,11.57
2022-08-19T07:55:42.056Z,12.32
2022-08-19T07:58:11.191Z,11.93
2022-08-19T08:00:39.661Z,10.63
2022-08-19T08:03:06.965Z,11.90
2022-08-19T08:05:53.164Z,11.23
2022-08-19T08:08:32.664Z,11.35
2022-08-19T08:11:01.432Z,10.90
2022-08-19T08:13:29.325Z,10.38
2022-08-19T08:15:58.263Z,10.02
2022-08-19T08:18:27.470Z,11.30
2022-08-19T08:20:59.305Z,11.50
2022-08-19T08:23:27.185Z,11.23
2022-08-19T08:25:57.925Z,10.80
2022-08-19T08:28:29.557Z,10.88
2022-08-19T08:30:58.799Z,10.65
2022-08-19T08:33:33.361Z,10.60
2022-08-19T08:36:06.073Z,9.85
2022-08-19T08:38:39.645Z,9.98
2022-08-19T08:41:32.598Z,10.55
2022-08-19T08:44:01.073Z,10.27
2022-08-19T08:46:41.304Z,11.07
2022-08-19T08:49:09.882Z,11.20
2022-08-19T08:52:01.487Z,11.40
2022-08-19T08:54:40.796Z,10.05
2022-08-19T08:57:42.473Z,10.82
2022-08-19T09:00:18.490Z,10.07
2022-08-19T09:02:50.859Z,12.13
2022-08-19T09:05:22.749Z,11.43
2022-08-19T09:08:13.682Z,11.55
2022-08-19T09:11:01.954Z,11.35
2022-08-19T09:13:50.197Z,11.20
2022-08-19T09:16:28.042Z,10.25
2022-08-19T09:19:00.048Z,11.05
2022-08-19T09:21:33.004Z,10.73
2022-08-19T09:24:03.761Z,10.80
2022-08-19T09:26:48.489Z,11.05
2022-08-19T09:29:22.529Z,10.95
2022-08-19T09:31:50.908Z,10.93
2022-08-19T09:34:22.120Z,10.40
2022-08-19T09:36:54.271Z,10.45
2022-08-19T09:39:22.854Z,11.40
2022-08-19T09:41:51.141Z,9.93
2022-08-19T09:44:19.261Z,10.83
2022-08-19T09:46:48.264Z,10.05
2022-08-19T09:49:18.671Z,10.70
2022-08-19T09:51:51.249Z,10.50
2022-08-19T09:54:23.520Z,9.50
2022-08-19T09:56:55.328Z,9.38
2022-08-19T09:59:23.467Z,10.23
2022-08-19T10:01:52.342Z,9.68
2022-08-19T10:04:22.105Z,9.20
2022-08-19T10:06:53.671Z,10.43
2022-08-19T10:09:26.428Z,11.05
2022-08-19T10:12:06.157Z,10.27
2022-08-19T10:14:34.522Z,11.48
2022-08-19T10:17:17.933Z,11.45
2022-08-19T10:19:53.830Z,11.57
2022-08-19T10:22:23.222Z,11.27
2022-08-19T10:24:53.669Z,11.50
2022-08-19T10:27:21.057Z,11.13
2022-08-19T10:29:48.994Z,12.65
2022-08-19T10:32:16.700Z,12.35
2022-08-19T10:34:48.746Z,13.05
2022-08-19T10:37:29.209Z,12.65
2022-08-19T10:39:59.879Z,11.13
2022-08-19T10:42:27.434Z,11.43
2022-08-19T10:44:54.550Z,12.18
2022-08-19T10:47:24.940Z,12.05
2022-08-19T10:50:14.198Z,11.98
2022-08-19T10:52:50.385Z,10.93
2022-08-19T10:55:43.335Z,11.73
2022-08-19T10:58:23.504Z,11.45
2022-08-19T11:00:57.808Z,12.23
2022-08-19T11:03:27.546Z,12.18
2022-08-19T11:06:08.515Z,11.45
2022-08-19T11:08:38.718Z,11.60
2022-08-19T11:11:08.177Z,11.77
2022-08-19T11:13:39.401Z,10.90
2022-08-19T11:16:15.375Z,11.60
2022-08-19T11:18:48.094Z,11.13
2022-08-19T11:21:23.381Z,10.85
2022-08-19T11:23:54.659Z,11.55
2022-08-19T11:26:23.615Z,11.40
2022-08-19T11:28:55.706Z,11.20
2022-08-19T11:31:28.811Z,11.70
2022-08-19T11:34:02.567Z,10.55
2022-08-19T11:36:32.291Z,10.48
2022-08-19T11:38:59.927Z,11.00
2022-08-19T11:41:28.157Z,10.88
2022-08-19T11:43:56.367Z,11.13
2022-08-19T11:46:26.472Z,11.40
2022-08-19T11:48:57.459Z,11.27
2022-08-19T11:51:26.876Z,10.65
2022-08-19T11:56:27.883Z,10.07
2022-08-19T11:58:57.947Z,11.07
2022-08-19T12:01:27.447Z,9.73
2022-08-19T12:03:56.309Z,9.68
2022-08-19T12:06:30.102Z,10.05
2022-08-19T12:08:59.696Z,9.70
2022-08-19T12:11:29.057Z,9.82
2022-08-19T12:13:59.119Z,9.25
2022-08-19T12:16:29.275Z,10.25
2022-08-19T12:18:58.507Z,9.68
2022-08-19T12:21:31.300Z,9.10
2022-08-19T12:24:01.038Z,10.38
2022-08-19T12:26:30.180Z,9.60
2022-08-19T12:28:57.419Z,9.93
2022-08-19T12:31:24.743Z,9.32
2022-08-19T12:33:53.488Z,9.70
2022-08-19T12:36:20.949Z,9.43
2022-08-19T12:38:48.011Z,8.45
2022-08-19T12:41:19.238Z,8.82
2022-08-19T12:43:46.571Z,7.07
2022-08-19T12:46:13.812Z,6.38
2022-08-19T12:48:44.837Z,5.65
2022-08-19T12:51:19.051Z,5.22
2022-08-19T12:53:47.708Z,4.63
2022-08-19T12:56:16.085Z,4.75
2022-08-19T12:58:49.102Z,4.70
2022-08-19T13:01:22.619Z,4.00
2022-08-19T13:03:51.050Z,3.90
2022-08-19T13:06:19.433Z,4.43
2022-08-19T13:08:47.947Z,3.83
2022-08-19T13:11:21.937Z,3.20
2022-08-19T13:13:51.393Z,3.40
2022-08-19T13:16:21.211Z,3.20
2022-08-19T13:18:50.271Z,3.20
2022-08-19T13:21:17.573Z,3.08
2022-08-19T13:23:49.361Z,2.72
2022-08-19T13:26:17.252Z,3.10
2022-08-19T13:29:04.334Z,2.80
2022-08-19T13:31:54.241Z,2.63
2022-08-19T13:34:33.928Z,3.30
2022-08-19T13:37:04.062Z,3.17
2022-08-19T13:39:35.669Z,3.63
2022-08-19T13:42:05.293Z,3.63
2022-08-19T13:44:33.231Z,3.67
2022-08-19T13:47:10.800Z,3.80
2022-08-19T13:49:38.347Z,3.65
2022-08-19T13:52:07.115Z,4.18
2022-08-19T13:54:36.781Z,4.22
2022-08-19T13:57:04.539Z,4.45
2022-08-19T13:59:31.770Z,4.32
2022-08-19T14:02:00.970Z,4.45
2022-08-19T14:04:28.945Z,6.47
2022-08-19T14:06:56.077Z,4.10
2022-08-19T14:09:23.260Z,4.35
2022-08-19T14:11:52.018Z,4.68
2022-08-19T14:14:19.095Z,4.65
2022-08-19T14:16:46.437Z,4.88
2022-08-19T14:19:13.983Z,4.45
2022-08-19T14:21:42.316Z,4.97
2022-08-19T14:24:10.274Z,4.97
2022-08-19T14:26:37.560Z,4.35
2022-08-19T14:29:04.823Z,5.18
2022-08-19T14:31:31.902Z,4.72
2022-08-19T14:33:59.123Z,4.22
2022-08-19T14:36:26.367Z,4.72
2022-08-19T14:38:54.270Z,4.63
2022-08-19T14:41:24.572Z,4.53
2022-08-19T14:43:54.017Z,5.03
2022-08-19T14:46:28.205Z,4.75
2022-08-19T14:48:57.609Z,5.25
2022-08-19T14:51:27.743Z,4.53
2022-08-19T14:53:55.724Z,4.97
2022-08-19T14:56:29.323Z,4.55
2022-08-19T14:59:00.332Z,4.95
2022-08-19T15:01:27.872Z,4.78
2022-08-19T15:03:59.106Z,4.78
2022-08-19T15:06:27.233Z,5.90
2022-08-19T15:08:55.217Z,5.30
2022-08-19T15:11:27.806Z,4.63
2022-08-19T15:13:57.307Z,5.00
2022-08-19T15:16:28.980Z,4.45
2022-08-19T15:18:59.892Z,5.10
2022-08-19T15:21:29.001Z,4.88
2022-08-19T15:23:59.340Z,4.82
2022-08-19T15:26:29.052Z,4.88
2022-08-19T15:28:56.988Z,5.43
2022-08-19T15:31:28.176Z,5.78
2022-08-19T15:33:59.274Z,5.10
2022-08-19T15:36:27.641Z,5.63
2022-08-19T15:38:56.934Z,4.78
2022-08-19T15:41:30.894Z,5.72
2022-08-19T15:44:00.594Z,4.63
2022-08-19T15:46:31.567Z,4.97
2022-08-19T15:49:00.537Z,4.72
2022-08-19T15:51:31.975Z,4.88
2022-08-19T15:54:00.406Z,5.22
2022-08-19T15:56:57.389Z,5.73
2022-08-19T15:59:47.126Z,5.10
2022-08-19T16:02:35.171Z,5.10
2022-08-19T16:05:26.887Z,5.65
2022-08-19T16:07:57.652Z,6.07
2022-08-19T16:10:26.218Z,5.63
2022-08-19T16:12:58.553Z,5.93
2022-08-19T16:15:30.556Z,5.57
2022-08-19T16:17:58.565Z,5.75
2022-08-19T16:20:27.343Z,5.18
2022-08-19T16:22:58.510Z,6.78
2022-08-19T16:25:30.095Z,5.18
2022-08-19T16:28:07.466Z,5.95
2022-08-19T16:30:39.272Z,5.50
2022-08-19T16:33:07.804Z,5.85
2022-08-19T16:35:35.776Z,5.60
2022-08-19T16:38:03.368Z,5.10
2022-08-19T16:40:30.495Z,5.53
2022-08-19T16:42:57.680Z,5.93
2022-08-19T16:45:25.226Z,5.35
2022-08-19T16:47:52.531Z,5.78
2022-08-19T16:50:39.046Z,5.93
2022-08-19T16:53:09.694Z,5.45
2022-08-19T16:55:37.691Z,5.63
2022-08-19T16:58:05.054Z,4.88
2022-08-19T17:00:32.367Z,5.00
2022-08-19T17:03:08.684Z,5.68
2022-08-19T17:05:46.498Z,5.70
2022-08-19T17:08:18.535Z,5.07
2022-08-19T17:11:16.423Z,5.13
2022-08-19T17:13:34.563Z,5.55
2022-08-19T17:16:02.485Z,5.80
2022-08-19T17:18:32.719Z,5.93
2022-08-19T17:21:01.542Z,6.13
2022-08-19T17:23:42.382Z,6.75
2022-08-19T17:26:17.918Z,6.28
2022-08-19T17:28:50.074Z,6.20
2022-08-19T17:31:20.596Z,6.10
2022-08-19T17:33:48.783Z,11.20
2022-08-19T17:36:30.157Z,8.80
2022-08-19T17:39:00.680Z,6.60
2022-08-19T17:41:30.570Z,6.75
2022-08-19T17:43:58.453Z,6.35
2022-08-19T17:46:25.773Z,6.35
2022-08-19T17:48:57.081Z,6.53
2022-08-19T17:51:32.797Z,6.85
2022-08-19T17:54:01.026Z,7.88
2022-08-19T17:56:31.211Z,8.20
2022-08-19T17:59:00.472Z,7.97
2022-08-19T18:01:50.644Z,8.80
2022-08-19T18:04:19.806Z,8.55
2022-08-19T18:06:53.701Z,8.75
2022-08-19T18:09:27.360Z,9.38
2022-08-19T18:11:57.263Z,9.77
2022-08-19T18:14:33.648Z,9.52
2022-08-19T18:17:14.103Z,10.05
2022-08-19T18:19:45.715Z,10.25
2022-08-19T18:22:35.556Z,9.43
2022-08-19T18:25:25.983Z,10.07
2022-08-19T18:28:00.660Z,9.82
2022-08-19T18:30:34.242Z,10.00
2022-08-19T18:33:14.251Z,10.43
2022-08-19T18:35:46.643Z,10.13
2022-08-19T18:38:36.140Z,10.48
2022-08-19T18:41:22.690Z,10.43
2022-08-19T18:44:08.681Z,10.07
2022-08-19T18:46:54.725Z,10.85
2022-08-19T18:49:29.132Z,9.35
2022-08-19T18:51:57.549Z,10.13
2022-08-19T18:54:26.727Z,10.43
2022-08-19T18:59:26.469Z,10.35
2022-08-19T19:01:57.499Z,10.27
2022-08-19T19:04:33.518Z,10.38
2022-08-19T19:07:00.998Z,10.30
2022-08-19T19:09:28.865Z,11.10
2022-08-19T19:12:00.718Z,10.27
2022-08-19T19:14:51.231Z,11.32
2022-08-19T19:17:20.032Z,10.70
2022-08-19T19:19:47.328Z,11.63
2022-08-19T19:22:19.855Z,10.60
2022-08-19T19:24:47.483Z,10.63
2022-08-19T19:27:18.562Z,10.85
2022-08-19T19:29:51.549Z,11.80
2022-08-19T19:32:36.957Z,12.85
2022-08-19T19:35:09.450Z,12.60
2022-08-19T19:37:36.742Z,12.27
2022-08-19T19:40:05.140Z,13.50
2022-08-19T19:42:32.288Z,13.47
2022-08-19T19:45:02.053Z,13.85
2022-08-19T19:47:30.385Z,13.35
2022-08-19T19:50:14.224Z,14.13
2022-08-19T19:52:45.643Z,13.63
2022-08-19T19:55:18.218Z,13.52
2022-08-19T19:57:47.511Z,14.50
2022-08-19T20:00:19.224Z,14.32
2022-08-19T20:02:50.171Z,14.68
2022-08-19T20:05:21.387Z,16.00
2022-08-19T20:08:09.531Z,15.00
2022-08-19T20:10:37.728Z,15.27
2022-08-19T20:21:34.653Z,15.13
2022-08-19T20:24:09.606Z,15.70
2022-08-19T20:26:38.235Z,16.38
2022-08-19T20:29:13.586Z,16.83
2022-08-19T20:31:54.367Z,16.35
2022-08-19T20:34:25.008Z,17.75
2022-08-19T20:36:52.461Z,17.80
2022-08-19T20:39:19.804Z,17.60
2022-08-19T20:41:47.153Z,18.30
2022-08-19T20:44:15.075Z,18.65
2022-08-19T20:46:43.174Z,17.83
2022-08-19T20:49:27.243Z,17.77
2022-08-19T20:51:56.210Z,18.88
2022-08-19T20:54:24.307Z,17.20
2022-08-19T20:56:51.824Z,18.08
2022-08-19T20:59:20.545Z,19.67
2022-08-19T21:01:48.810Z,18.50
2022-08-19T21:04:16.778Z,19.27
2022-08-19T21:06:45.329Z,19.65
2022-08-19T21:11:41.117Z,17.08
2022-08-19T21:14:08.788Z,18.30
2022-08-19T21:16:36.377Z,17.70
2022-08-19T21:19:04.759Z,17.63
2022-08-19T21:21:33.259Z,18.38
2022-08-19T21:24:01.793Z,17.38
2022-08-19T21:26:29.268Z,18.13
2022-08-19T21:28:56.633Z,18.50
2022-08-19T21:31:26.834Z,18.17
2022-08-19T21:33:54.062Z,17.92
2022-08-19T21:36:21.855Z,18.35
2022-08-19T21:38:49.103Z,17.67
2022-08-19T21:41:16.315Z,18.17
2022-08-19T21:43:43.500Z,17.45
2022-08-19T21:46:10.970Z,18.40
2022-08-19T21:48:38.370Z,18.17
2022-08-19T21:51:06.394Z,18.23
2022-08-19T21:53:34.669Z,17.05
2022-08-19T21:56:04.734Z,18.43
2022-08-19T21:58:31.879Z,17.40
2022-08-19T22:01:01.589Z,17.73
2022-08-19T22:03:29.612Z,17.13
2022-08-19T22:05:58.632Z,17.33
2022-08-19T22:10:55.102Z,15.93
2022-08-19T22:13:22.667Z,17.23
2022-08-19T22:15:51.960Z,17.15
2022-08-19T22:18:19.477Z,16.60
2022-08-19T22:20:47.904Z,16.55
2022-08-19T22:23:15.298Z,18.15
2022-08-19T22:25:46.737Z,17.27
2022-08-19T22:28:18.971Z,16.55
2022-08-19T22:30:55.993Z,16.55
2022-08-19T22:33:25.858Z,16.15
2022-08-19T22:35:53.957Z,15.43
2022-08-19T22:38:22.812Z,15.15
2022-08-19T22:40:52.141Z,16.15
2022-08-19T22:43:28.714Z,15.65
2022-08-19T22:45:58.202Z,15.15
2022-08-19T22:51:15.352Z,13.95
2022-08-19T22:53:46.649Z,13.85
2022-08-19T22:56:19.339Z,13.23
2022-08-19T22:58:50.174Z,13.07
2022-08-19T23:01:29.891Z,12.30
2022-08-19T23:03:59.925Z,11.63
2022-08-19T23:06:33.752Z,11.77
2022-08-19T23:09:05.319Z,10.57
2022-08-19T23:11:41.953Z,9.15
2022-08-19T23:14:12.770Z,8.73
2022-08-19T23:16:41.868Z,8.38
2022-08-19T23:19:10.637Z,7.57
2022-08-19T23:21:40.245Z,7.78
2022-08-19T23:24:08.004Z,8.32
2022-08-19T23:26:36.206Z,7.88
2022-08-19T23:29:24.475Z,7.78
2022-08-19T23:31:51.804Z,7.97
2022-08-19T23:34:20.290Z,7.90
2022-08-19T23:36:48.420Z,8.18
2022-08-19T23:39:15.882Z,7.80
2022-08-19T23:41:43.204Z,7.22
2022-08-19T23:44:14.544Z,6.60
2022-08-19T23:46:55.220Z,5.82
2022-08-19T23:49:25.166Z,5.35
2022-08-19T23:51:54.369Z,5.35
2022-08-19T23:54:21.831Z,5.03
2022-08-19T23:56:49.399Z,4.43
2022-08-19T23:59:19.720Z,4.50
